createdAt,value
2023-04-18T00:01:41.061Z,77.20
2023-04-18T00:04:09.975Z,77.20
2023-04-18T00:06:38.118Z,77.20
2023-04-18T00:09:06.543Z,77.10
2023-04-18T00:11:35.350Z,77.10
2023-04-18T00:14:03.635Z,77.20
2023-04-18T00:16:32.873Z,77.30
2023-04-18T00:19:02.632Z,77.30
2023-04-18T00:21:32.194Z,77.30
2023-04-18T00:24:00.051Z,77.30
2023-04-18T00:26:28.481Z,77.30
2023-04-18T00:28:58.123Z,77.40
2023-04-18T00:31:26.542Z,77.50
2023-04-18T00:33:54.692Z,77.60
2023-04-18T00:36:25.098Z,77.60
2023-04-18T00:38:52.905Z,77.50
2023-04-18T00:41:23.706Z,77.50
2023-04-18T00:43:51.330Z,77.60
2023-04-18T00:46:19.511Z,77.60
2023-04-18T00:48:48.270Z,77.60
2023-04-18T00:51:18.119Z,77.60
2023-04-18T00:53:46.502Z,77.70
2023-04-18T00:56:14.817Z,77.70
2023-04-18T00:58:42.752Z,77.80
2023-04-18T01:01:11.113Z,77.80
2023-04-18T01:03:39.968Z,77.80
2023-04-18T01:06:08.299Z,77.90
2023-04-18T01:08:36.937Z,77.90
2023-04-18T01:11:05.048Z,77.90
2023-04-18T01:13:33.037Z,77.90
2023-04-18T01:16:01.379Z,77.80
2023-04-18T01:18:31.824Z,77.80
2023-04-18T01:21:01.017Z,77.90
2023-04-18T01:23:29.896Z,77.90
2023-04-18T01:25:59.872Z,77.80
2023-04-18T01:28:28.036Z,77.90
2023-04-18T01:30:57.089Z,78.00
2023-04-18T01:33:24.861Z,78.00
2023-04-18T01:35:52.929Z,77.90
2023-04-18T01:38:20.499Z,78.00
2023-04-18T01:40:48.574Z,77.90
2023-04-18T01:43:16.290Z,78.00
2023-04-18T01:45:44.737Z,78.00
2023-04-18T01:48:13.082Z,78.00
2023-04-18T01:50:43.657Z,77.90
2023-04-18T01:53:11.761Z,77.80
2023-04-18T01:55:39.921Z,77.90
2023-04-18T01:58:07.547Z,77.90
2023-04-18T02:00:37.111Z,78.00
2023-04-18T02:03:06.281Z,78.10
2023-04-18T02:05:36.097Z,78.10
2023-04-18T02:08:03.946Z,78.00
2023-04-18T02:10:31.990Z,78.00
2023-04-18T02:13:00.116Z,78.10
2023-04-18T02:15:28.799Z,78.10
2023-04-18T02:18:00.374Z,78.20
2023-04-18T02:20:33.907Z,78.20
2023-04-18T02:23:03.137Z,78.20
2023-04-18T02:25:32.164Z,78.10
2023-04-18T02:28:00.146Z,78.20
2023-04-18T02:30:32.567Z,78.20
2023-04-18T02:33:03.168Z,78.20
2023-04-18T02:35:32.005Z,78.20
2023-04-18T02:37:59.780Z,78.20
2023-04-18T02:40:27.820Z,78.30
2023-04-18T02:42:56.807Z,78.40
2023-04-18T02:45:25.145Z,78.50
2023-04-18T02:47:56.161Z,78.50
2023-04-18T02:50:25.652Z,78.70
2023-04-18T02:52:56.339Z,78.70
2023-04-18T02:55:29.571Z,78.80
2023-04-18T02:58:00.163Z,78.70
2023-04-18T03:00:47.029Z,78.70
2023-04-18T03:03:37.788Z,78.70
2023-04-18T03:06:32.204Z,78.60
2023-04-18T03:09:04.191Z,78.70
2023-04-18T03:11:35.003Z,78.60
2023-04-18T03:14:03.015Z,78.60
2023-04-18T03:16:40.395Z,78.60
2023-04-18T03:19:10.748Z,78.50
2023-04-18T03:21:41.279Z,78.30
2023-04-18T03:24:11.984Z,78.30
2023-04-18T03:26:41.888Z,78.40
2023-04-18T03:29:10.216Z,78.50
2023-04-18T03:31:39.231Z,78.60
2023-04-18T03:34:06.959Z,78.70
2023-04-18T03:36:35.538Z,78.90
2023-04-18T03:39:03.919Z,78.70
2023-04-18T03:41:31.935Z,78.70
2023-04-18T03:44:00.249Z,78.80
2023-04-18T03:46:29.379Z,78.90
2023-04-18T03:48:59.345Z,79.00
2023-04-18T03:51:28.077Z,79.00
2023-04-18T03:53:55.769Z,79.10
2023-04-18T03:56:24.809Z,79.20
2023-04-18T03:58:54.482Z,79.20
2023-04-18T04:01:23.434Z,79.10
2023-04-18T04:03:54.526Z,79.10
2023-04-18T04:06:23.611Z,79.20
2023-04-18T04:08:51.405Z,79.30
2023-04-18T04:11:24.134Z,79.40
2023-04-18T04:13:51.947Z,79.40
2023-04-18T04:16:24.176Z,79.40
2023-04-18T04:18:55.489Z,79.30
2023-04-18T04:21:28.223Z,79.30
2023-04-18T04:23:57.386Z,79.20
2023-04-18T04:26:34.816Z,79.30
2023-04-18T04:29:08.120Z,79.40
2023-04-18T04:31:36.289Z,79.30
2023-04-18T04:34:05.290Z,79.30
2023-04-18T04:36:33.758Z,79.30
2023-04-18T04:39:04.440Z,79.30
2023-04-18T04:41:41.484Z,79.40
2023-04-18T04:44:10.067Z,79.40
2023-04-18T04:46:40.592Z,79.50
2023-04-18T04:49:15.136Z,79.40
2023-04-18T04:51:44.713Z,79.50
2023-04-18T04:54:12.734Z,79.50
2023-04-18T04:56:41.303Z,79.50
2023-04-18T04:59:09.403Z,79.50
2023-04-18T05:02:02.136Z,79.40
2023-04-18T05:04:31.266Z,79.40
2023-04-18T05:06:59.599Z,79.30
2023-04-18T05:09:27.444Z,79.40
2023-04-18T05:11:55.663Z,79.50
2023-04-18T05:14:23.469Z,79.50
2023-04-18T05:16:51.983Z,79.60
2023-04-18T05:19:19.738Z,79.60
2023-04-18T05:21:48.075Z,79.50
2023-04-18T05:24:16.219Z,79.40
2023-04-18T05:26:44.475Z,79.50
2023-04-18T05:29:12.250Z,79.70
2023-04-18T05:31:43.473Z,79.70
2023-04-18T05:34:12.839Z,79.60
2023-04-18T05:36:41.195Z,79.70
2023-04-18T05:39:08.837Z,79.70
2023-04-18T05:41:38.072Z,79.90
2023-04-18T05:44:06.051Z,79.90
2023-04-18T05:46:34.372Z,79.90
2023-04-18T05:49:02.683Z,79.80
2023-04-18T05:51:31.608Z,79.80
2023-04-18T05:53:59.403Z,79.80
2023-04-18T05:56:27.667Z,79.80
2023-04-18T05:58:55.415Z,80.00
2023-04-18T06:01:24.218Z,80.00
2023-04-18T06:03:52.158Z,80.00
2023-04-18T06:06:21.465Z,80.20
2023-04-18T06:11:33.959Z,80.10
2023-04-18T06:14:02.270Z,80.00
2023-04-18T06:16:30.510Z,80.10
2023-04-18T06:19:00.830Z,80.20
2023-04-18T06:21:29.851Z,80.30
2023-04-18T06:23:57.810Z,80.30
2023-04-18T06:26:25.868Z,80.40
2023-04-18T06:28:54.094Z,80.50
2023-04-18T06:31:22.592Z,80.50
2023-04-18T06:33:51.434Z,80.50
2023-04-18T06:36:20.215Z,80.50
2023-04-18T06:38:47.977Z,80.40
2023-04-18T06:41:16.392Z,80.40
2023-04-18T06:43:55.712Z,80.40
2023-04-18T06:46:31.255Z,80.40
2023-04-18T06:48:59.321Z,80.20
2023-04-18T06:51:27.948Z,80.40
2023-04-18T06:53:56.284Z,80.40
2023-04-18T06:56:24.462Z,80.40
2023-04-18T06:58:53.281Z,80.50
2023-04-18T07:01:21.662Z,80.60
2023-04-18T07:03:50.318Z,80.70
2023-04-18T07:06:19.081Z,80.90
2023-04-18T07:08:46.959Z,81.10
2023-04-18T07:11:15.865Z,81.10
2023-04-18T07:13:43.659Z,81.00
2023-04-18T07:16:12.088Z,80.90
2023-04-18T07:18:39.842Z,80.90
2023-04-18T07:21:08.447Z,81.00
2023-04-18T07:23:36.562Z,81.20
2023-04-18T07:26:06.045Z,81.40
2023-04-18T07:28:33.966Z,81.40
2023-04-18T07:31:03.498Z,81.40
2023-04-18T07:33:34.075Z,81.50
2023-04-18T07:36:03.193Z,81.60
2023-04-18T07:38:31.064Z,81.50
2023-04-18T07:41:00.622Z,81.40
2023-04-18T07:43:28.492Z,81.50
2023-04-18T07:45:56.717Z,81.60
2023-04-18T07:48:25.657Z,81.70
2023-04-18T07:50:54.585Z,81.80
2023-04-18T07:53:22.567Z,81.60
2023-04-18T07:55:51.072Z,81.60
2023-04-18T07:58:18.751Z,81.50
2023-04-18T08:00:47.191Z,81.40
2023-04-18T08:03:15.210Z,81.30
2023-04-18T08:05:44.368Z,81.40
2023-04-18T08:08:12.897Z,81.50
2023-04-18T08:10:41.080Z,81.50
2023-04-18T08:13:08.913Z,81.40
2023-04-18T08:15:37.173Z,81.30
2023-04-18T08:18:05.004Z,81.40
2023-04-18T08:20:34.510Z,81.40
2023-04-18T08:23:08.565Z,81.40
2023-04-18T08:25:38.615Z,81.50
2023-04-18T08:28:06.398Z,81.50
2023-04-18T08:30:34.679Z,81.50
2023-04-18T08:33:02.788Z,81.60
2023-04-18T08:35:30.873Z,81.80
2023-04-18T08:38:01.563Z,81.80
2023-04-18T08:40:31.371Z,81.80
2023-04-18T08:43:05.303Z,81.90
2023-04-18T08:45:33.800Z,81.80
2023-04-18T08:48:03.819Z,81.50
2023-04-18T08:50:32.664Z,81.40
2023-04-18T08:53:03.708Z,81.40
2023-04-18T08:55:34.265Z,81.50
2023-04-18T08:58:03.123Z,81.50
2023-04-18T09:00:31.511Z,81.60
2023-04-18T09:02:59.820Z,81.60
2023-04-18T09:05:28.453Z,81.70
2023-04-18T09:07:57.179Z,81.60
2023-04-18T09:10:35.386Z,81.50
2023-04-18T09:13:03.902Z,81.60
2023-04-18T09:15:32.740Z,81.60
2023-04-18T09:18:03.325Z,81.60
2023-04-18T09:20:41.518Z,81.50
2023-04-18T09:23:14.954Z,81.50
2023-04-18T09:25:47.037Z,81.40
2023-04-18T09:28:29.103Z,81.10
2023-04-18T09:31:12.239Z,81.30
2023-04-18T09:33:46.660Z,81.40
2023-04-18T09:36:21.779Z,81.50
2023-04-18T09:38:55.544Z,81.40
2023-04-18T09:41:27.320Z,81.40
2023-04-18T09:44:14.396Z,81.60
2023-04-18T09:46:47.089Z,81.70
2023-04-18T09:49:17.334Z,81.70
2023-04-18T09:51:46.562Z,81.70
2023-04-18T09:54:16.775Z,81.80
2023-04-18T09:56:46.276Z,81.80
2023-04-18T09:59:21.195Z,81.80
2023-04-18T10:01:51.148Z,81.80
2023-04-18T10:04:19.691Z,81.90
2023-04-18T10:06:49.085Z,81.80
2023-04-18T10:09:17.571Z,81.90
2023-04-18T10:11:46.027Z,82.10
2023-04-18T10:14:16.298Z,82.20
2023-04-18T10:16:46.273Z,82.20
2023-04-18T10:19:29.679Z,82.20
2023-04-18T10:22:00.781Z,82.20
2023-04-18T10:24:48.306Z,82.20
2023-04-18T10:27:18.446Z,82.20
2023-04-18T10:29:54.274Z,82.10
2023-04-18T10:32:25.678Z,82.20
2023-04-18T10:34:56.514Z,82.10
2023-04-18T10:37:27.047Z,82.30
2023-04-18T10:39:54.832Z,82.30
2023-04-18T10:42:46.187Z,82.40
2023-04-18T10:45:23.418Z,82.40
2023-04-18T10:47:51.624Z,82.30
2023-04-18T10:50:20.892Z,82.40
2023-04-18T10:52:49.134Z,82.40
2023-04-18T10:55:20.639Z,82.40
2023-04-18T10:57:50.871Z,82.40
2023-04-18T11:00:20.828Z,82.40
2023-04-18T11:02:54.328Z,82.30
2023-04-18T11:05:25.532Z,82.40
2023-04-18T11:07:54.495Z,82.50
2023-04-18T11:10:27.465Z,82.50
2023-04-18T11:12:56.846Z,82.40
2023-04-18T11:15:26.301Z,82.40
2023-04-18T11:18:03.989Z,82.30
2023-04-18T11:20:50.320Z,82.50
2023-04-18T11:23:21.784Z,82.50
2023-04-18T11:25:54.774Z,82.50
2023-04-18T11:28:25.330Z,82.50
2023-04-18T11:30:57.949Z,82.30
2023-04-18T11:33:29.555Z,82.30
2023-04-18T11:36:01.062Z,82.40
2023-04-18T11:38:34.813Z,82.40
2023-04-18T11:41:05.942Z,82.50
2023-04-18T11:43:34.596Z,82.70
2023-04-18T11:46:02.638Z,82.60
2023-04-18T11:48:37.247Z,82.50
2023-04-18T11:51:06.654Z,82.50
2023-04-18T11:53:35.767Z,82.50
2023-04-18T11:56:04.744Z,82.50
2023-04-18T11:58:36.832Z,82.50
2023-04-18T12:01:21.987Z,82.80
2023-04-18T12:04:04.165Z,82.70
2023-04-18T12:06:47.340Z,82.70
2023-04-18T12:09:19.934Z,82.80
2023-04-18T12:12:05.527Z,82.60
2023-04-18T12:14:39.628Z,82.70
2023-04-18T12:17:20.353Z,82.70
2023-04-18T12:19:53.748Z,82.40
2023-04-18T12:22:51.459Z,82.20
2023-04-18T12:25:27.832Z,82.00
2023-04-18T12:28:23.649Z,81.80
2023-04-18T12:30:53.526Z,81.80
2023-04-18T12:33:25.580Z,81.80
2023-04-18T12:35:56.656Z,81.90
2023-04-18T12:38:25.745Z,82.00
2023-04-18T12:40:57.338Z,81.90
2023-04-18T12:43:27.076Z,82.00
2023-04-18T12:46:00.241Z,81.90
2023-04-18T12:48:30.930Z,82.00
2023-04-18T12:50:59.829Z,82.10
2023-04-18T12:54:08.949Z,82.10
2023-04-18T12:56:38.154Z,82.10
2023-04-18T12:59:09.668Z,82.00
2023-04-18T13:01:41.028Z,82.00
2023-04-18T13:04:13.874Z,82.00
2023-04-18T13:06:42.309Z,82.10
2023-04-18T13:09:10.617Z,82.10
2023-04-18T13:11:40.947Z,82.00
2023-04-18T13:14:09.805Z,81.90
2023-04-18T13:16:38.337Z,82.00
2023-04-18T13:19:07.188Z,81.90
2023-04-18T13:21:38.058Z,81.90
2023-04-18T13:24:07.506Z,81.90
2023-04-18T13:26:39.153Z,81.70
2023-04-18T13:29:07.958Z,81.70
2023-04-18T13:31:36.888Z,81.60
2023-04-18T13:34:04.634Z,81.50
2023-04-18T13:36:35.212Z,81.60
2023-04-18T13:39:04.931Z,81.70
2023-04-18T13:41:33.868Z,81.70
2023-04-18T13:44:01.752Z,81.70
2023-04-18T13:46:31.404Z,81.70
2023-04-18T13:48:59.328Z,81.70
2023-04-18T13:51:28.112Z,81.80
2023-04-18T13:53:55.945Z,81.70
2023-04-18T13:56:25.138Z,81.60
2023-04-18T13:58:52.767Z,81.60
2023-04-18T14:01:21.320Z,81.40
2023-04-18T14:03:49.229Z,81.40
2023-04-18T14:06:17.564Z,81.30
2023-04-18T14:08:45.534Z,81.40
2023-04-18T14:11:13.555Z,81.50
2023-04-18T14:13:41.316Z,81.40
2023-04-18T14:16:09.589Z,81.20
2023-04-18T14:18:37.351Z,81.10
2023-04-18T14:21:05.486Z,81.20
2023-04-18T14:23:33.436Z,81.20
2023-04-18T14:26:01.690Z,81.20
2023-04-18T14:28:30.144Z,81.10
2023-04-18T14:31:00.216Z,81.00
2023-04-18T14:33:28.083Z,81.00
2023-04-18T14:35:56.293Z,81.00
2023-04-18T14:38:24.511Z,80.90
2023-04-18T14:40:53.657Z,80.90
2023-04-18T14:43:21.586Z,80.80
2023-04-18T14:45:49.702Z,80.90
2023-04-18T14:48:17.963Z,80.70
2023-04-18T14:50:47.176Z,80.80
2023-04-18T14:53:14.958Z,80.80
2023-04-18T14:55:45.131Z,80.90
2023-04-18T14:58:14.297Z,80.90
2023-04-18T15:00:42.773Z,80.80
2023-04-18T15:03:11.313Z,80.70
2023-04-18T15:05:43.280Z,80.80
2023-04-18T15:08:14.792Z,80.70
2023-04-18T15:10:43.724Z,80.70
2023-04-18T15:13:12.802Z,80.60
2023-04-18T15:15:41.644Z,80.60
2023-04-18T15:18:10.711Z,80.60
2023-04-18T15:20:39.904Z,80.60
2023-04-18T15:23:07.738Z,80.60
2023-04-18T15:25:36.188Z,80.60
2023-04-18T15:28:04.317Z,80.50
2023-04-18T15:30:33.409Z,80.70
2023-04-18T15:33:02.744Z,80.70
2023-04-18T15:35:30.877Z,80.70
2023-04-18T15:37:58.492Z,80.70
2023-04-18T15:40:26.522Z,80.60
2023-04-18T15:42:54.716Z,80.20
2023-04-18T15:45:24.311Z,80.10
2023-04-18T15:47:53.128Z,80.10
2023-04-18T15:50:21.957Z,80.00
2023-04-18T15:52:49.733Z,79.90
2023-04-18T15:55:18.256Z,79.70
2023-04-18T15:57:47.459Z,79.80
2023-04-18T16:00:20.129Z,80.00
2023-04-18T16:02:48.205Z,80.00
2023-04-18T16:05:16.717Z,79.90
2023-04-18T16:07:44.971Z,79.70
2023-04-18T16:10:14.280Z,79.60
2023-04-18T16:12:42.165Z,79.60
2023-04-18T16:15:11.251Z,79.60
2023-04-18T16:17:40.397Z,79.30
2023-04-18T16:20:09.983Z,79.40
2023-04-18T16:22:38.430Z,79.40
2023-04-18T16:25:07.621Z,79.30
2023-04-18T16:27:35.514Z,79.00
2023-04-18T16:30:04.315Z,79.00
2023-04-18T16:32:32.330Z,79.10
2023-04-18T16:35:05.215Z,79.10
2023-04-18T16:37:33.097Z,79.20
2023-04-18T16:40:02.152Z,79.20
2023-04-18T16:42:29.901Z,79.20
2023-04-18T16:44:59.046Z,79.10
2023-04-18T16:47:27.212Z,79.20
2023-04-18T16:49:56.154Z,79.20
2023-04-18T16:52:24.822Z,79.10
2023-04-18T16:54:54.532Z,79.10
2023-04-18T16:57:22.947Z,79.20
2023-04-18T16:59:51.542Z,79.00
2023-04-18T17:02:19.482Z,79.00
2023-04-18T17:04:48.926Z,79.10
2023-04-18T17:07:16.878Z,79.10
2023-04-18T17:09:45.924Z,79.00
2023-04-18T17:12:13.816Z,79.00
2023-04-18T17:14:42.236Z,79.00
2023-04-18T17:17:12.195Z,79.10
2023-04-18T17:19:40.768Z,79.10
2023-04-18T17:22:09.196Z,79.10
2023-04-18T17:24:37.411Z,79.10
2023-04-18T17:27:05.985Z,79.10
2023-04-18T17:29:34.841Z,79.10
2023-04-18T17:32:05.245Z,79.10
2023-04-18T17:34:35.043Z,79.10
2023-04-18T17:37:04.207Z,79.10
2023-04-18T17:39:34.383Z,79.20
2023-04-18T17:42:03.462Z,79.20
2023-04-18T17:44:32.478Z,79.20
2023-04-18T17:47:02.615Z,79.30
2023-04-18T17:49:35.344Z,79.40
2023-04-18T17:52:06.973Z,79.40
2023-04-18T17:54:36.801Z,79.50
2023-04-18T17:57:06.703Z,79.40
2023-04-18T17:59:38.691Z,79.40
2023-04-18T18:02:07.971Z,79.30
2023-04-18T18:04:39.393Z,79.40
2023-04-18T18:07:08.881Z,79.40
2023-04-18T18:09:39.109Z,79.40
2023-04-18T18:12:14.502Z,79.30
2023-04-18T18:14:45.460Z,79.30
2023-04-18T18:17:14.682Z,79.30
2023-04-18T18:19:44.991Z,79.00
2023-04-18T18:22:15.230Z,79.00
2023-04-18T18:24:47.697Z,79.20
2023-04-18T18:27:20.406Z,79.30
2023-04-18T18:29:52.967Z,79.30
2023-04-18T18:32:22.871Z,79.30
2023-04-18T18:34:53.411Z,79.50
2023-04-18T18:37:25.015Z,79.10
2023-04-18T18:39:59.707Z,79.20
2023-04-18T18:42:28.690Z,79.30
2023-04-18T18:44:59.101Z,79.30
2023-04-18T18:47:28.399Z,79.30
2023-04-18T18:49:59.433Z,79.30
2023-04-18T18:52:32.748Z,79.30
2023-04-18T18:55:06.549Z,79.30
2023-04-18T18:57:35.381Z,79.30
2023-04-18T19:00:13.709Z,79.30
2023-04-18T19:02:46.883Z,79.30
2023-04-18T19:05:27.588Z,79.40
2023-04-18T19:07:58.206Z,79.30
2023-04-18T19:10:29.049Z,79.40
2023-04-18T19:12:58.916Z,79.50
2023-04-18T19:15:34.814Z,79.60
2023-04-18T19:18:05.094Z,79.50
2023-04-18T19:20:39.900Z,79.50
2023-04-18T19:23:13.656Z,79.30
2023-04-18T19:25:43.626Z,79.40
2023-04-18T19:28:15.314Z,79.40
2023-04-18T19:30:48.836Z,79.30
2023-04-18T19:33:18.919Z,79.30
2023-04-18T19:35:49.378Z,79.50
2023-04-18T19:38:18.872Z,79.40
2023-04-18T19:40:52.975Z,79.30
2023-04-18T19:43:24.958Z,79.40
2023-04-18T19:45:55.375Z,79.50
2023-04-18T19:48:23.739Z,79.50
2023-04-18T19:50:58.468Z,79.50
2023-04-18T19:53:31.244Z,79.40
2023-04-18T19:56:01.747Z,79.30
2023-04-18T19:58:47.652Z,79.40
2023-04-18T20:01:22.380Z,79.40
2023-04-18T20:03:53.202Z,79.30
2023-04-18T20:06:27.644Z,79.30
2023-04-18T20:08:57.181Z,79.30
2023-04-18T20:11:25.916Z,79.40
2023-04-18T20:13:59.945Z,79.40
2023-04-18T20:16:37.752Z,79.40
2023-04-18T20:19:07.062Z,79.30
2023-04-18T20:21:37.966Z,79.30
2023-04-18T20:24:11.843Z,79.40
2023-04-18T20:26:41.572Z,79.40
2023-04-18T20:29:10.426Z,79.40
2023-04-18T20:31:43.957Z,79.40
2023-04-18T20:34:18.866Z,79.20
2023-04-18T20:36:51.885Z,79.20
2023-04-18T20:39:20.818Z,79.10
2023-04-18T20:41:54.324Z,79.20
2023-04-18T20:44:22.443Z,79.20
2023-04-18T20:46:55.003Z,79.20
2023-04-18T20:49:24.061Z,79.20
2023-04-18T20:51:55.101Z,79.20
2023-04-18T20:54:23.203Z,79.10
2023-04-18T20:56:52.632Z,79.10
2023-04-18T20:59:20.811Z,79.10
2023-04-18T21:01:52.028Z,79.10
2023-04-18T21:04:21.364Z,79.20
2023-04-18T21:06:49.581Z,79.20
2023-04-18T21:09:18.877Z,79.30
2023-04-18T21:11:47.439Z,79.20
2023-04-18T21:14:17.342Z,79.20
2023-04-18T21:16:45.692Z,79.30
2023-04-18T21:19:13.869Z,79.30
2023-04-18T21:21:41.870Z,79.30
2023-04-18T21:24:11.121Z,79.40
2023-04-18T21:26:39.216Z,79.30
2023-04-18T21:29:07.202Z,79.30
2023-04-18T21:31:35.928Z,79.30
2023-04-18T21:34:05.613Z,79.40
2023-04-18T21:36:33.912Z,79.30
2023-04-18T21:39:01.908Z,79.40
2023-04-18T21:41:30.931Z,79.40
2023-04-18T21:44:03.149Z,79.40
2023-04-18T21:46:31.650Z,79.30
2023-04-18T21:48:59.620Z,79.30
2023-04-18T21:51:27.859Z,79.30
2023-04-18T21:53:56.064Z,79.30
2023-04-18T21:56:23.928Z,79.30
2023-04-18T21:58:51.648Z,79.20
2023-04-18T22:01:22.000Z,79.20
2023-04-18T22:03:49.980Z,79.30
2023-04-18T22:06:19.801Z,79.40
2023-04-18T22:08:48.789Z,79.40
2023-04-18T22:11:16.857Z,79.40
2023-04-18T22:13:46.298Z,79.40
2023-04-18T22:16:14.507Z,79.40
2023-04-18T22:18:42.292Z,79.30
2023-04-18T22:21:10.405Z,79.30
2023-04-18T22:23:38.344Z,79.40
2023-04-18T22:26:06.910Z,79.40
2023-04-18T22:28:34.655Z,79.30
2023-04-18T22:31:03.026Z,79.40
2023-04-18T22:33:30.752Z,79.40
2023-04-18T22:35:58.838Z,79.40
2023-04-18T22:38:26.644Z,79.40
2023-04-18T22:40:54.819Z,79.40
2023-04-18T22:43:23.091Z,79.40
2023-04-18T22:45:51.939Z,79.30
2023-04-18T22:48:19.619Z,79.30
2023-04-18T22:50:47.626Z,79.30
2023-04-18T22:53:16.239Z,79.20
2023-04-18T22:55:46.140Z,79.20
2023-04-18T22:58:14.144Z,79.20
2023-04-18T23:00:43.568Z,79.10
2023-04-18T23:03:11.679Z,79.10
2023-04-18T23:05:42.054Z,79.10
2023-04-18T23:08:09.809Z,79.20
2023-04-18T23:10:39.190Z,79.10
2023-04-18T23:13:06.869Z,79.20
2023-04-18T23:15:35.001Z,79.20
2023-04-18T23:18:02.802Z,79.30
2023-04-18T23:20:56.787Z,79.30
2023-04-18T23:23:24.693Z,79.20
2023-04-18T23:25:52.666Z,79.10
2023-04-18T23:28:20.518Z,79.10
2023-04-18T23:30:50.517Z,79.10
2023-04-18T23:33:18.237Z,79.20
2023-04-18T23:35:46.386Z,79.20
2023-04-18T23:38:14.386Z,79.20
2023-04-18T23:40:42.601Z,79.30
2023-04-18T23:43:10.292Z,79.30
2023-04-18T23:45:38.359Z,79.20
2023-04-18T23:48:06.961Z,79.30
2023-04-18T23:50:36.770Z,79.30
2023-04-18T23:53:06.341Z,79.20
2023-04-18T23:55:34.513Z,79.20
2023-04-18T23:58:02.211Z,78.90
